Accueil
METAR-TAF:

METAR-TAF

Aéroports :

Nottingham Leicester Derby, Angleterre

Aéroport d'East Midlands

latitude: 52-50N, longitude: 001-20W, altitude: 94 m

Observation

Le bulletin a été fait il y a 15 minutes, à 00:20 UTC
Vent 14 kt de est/sud-est
Température 1°C
Humidité 75%
Pression 1021 hPa
Visibilité 10 km ou plus
Nuages fragmentés à une hauteur de 2200 ft

METAR: EGNX 240020Z 11014KT 9999 BKN022 01/M03 Q1021

Heure: 00:35 (00:35 UTC)

Prévision

Le bulletin a été fait il y a 1 heure et 31 minutes, à 23:04 UTC
Prévision valable du 24 à 00 UTC au 24 à 24 UTC
Vent 10 kt de est
Visibilité 10 km ou plus
Quelques nuages à une hauteur de 2500 ft
Probabilité 30%
du 24 à 00 UTC au 24 à 09 UTC
Visibilité: 8000 m
Probabilité 30% :
Temporairement
du 24 à 18 UTC au 24 à 24 UTC
Nuages fragmentés à une hauteur de 1400 ft

TAF: EGNX 232304Z 2400/2424 10010KT 9999 FEW025 PROB30 2400/2409 8000 PROB30 TEMPO 2418/2424 BKN014

Observations et prévisions météorologiques de plus de 4000 aéroports (messages METAR et TAF).

Les stations disponibles sont représentées par des disques jaunes et rouges sur la carte.

Passer la souris dessus pour voir le nom de la station.

Cliquer dessus pour voir les observations et prévisions météorologiques.

Pour changer de carte: cliquez sur les boutons verts avec une croix noire pour zoomer, sur le bouton vert avec un tiret pour effectuer un zoom arrière, ou sur les flèches vertes pour les cartes adjacentes.


METAR-TAF: